Time;durP1;ratioP1;P1;durP2;ratioP2;P2;SDS_P1;SDS_P2;PMS_P1;PMS_P2;Temp;Humidity;BMP_temperature;BMP_pressure;BME280_temperature;BME280_humidity;BME280_pressure;Samples;Min_cycle;Max_cycle;Signal;HPM_P1;HPM_P2
2022/01/28 00:00:36;;;;;;;33.88;4.93;;;5.20;99.90;;;;;;4895546;29;20442;-85
2022/01/28 00:03:06;;;;;;;34.92;4.32;;;5.20;99.90;;;;;;4896536;29;20161;-85
2022/01/28 00:05:34;;;;;;;28.02;4.05;;;5.20;99.90;;;;;;4879522;29;20044;-86
2022/01/28 00:07:59;;;;;;;22.25;3.20;;;5.20;99.90;;;;;;4880188;29;20464;-87
2022/01/28 00:10:27;;;;;;;21.85;2.70;;;5.10;99.90;;;;;;4895392;29;20044;-88
2022/01/28 00:18:27;;;;;;;16.10;2.65;;;4.50;99.90;;;;;;4896026;29;20177;-86
2022/01/28 00:39:37;;;;;;;39.67;5.43;;;4.10;99.90;;;;;;4876372;29;20414;-86
2022/01/28 00:42:03;;;;;;;32.67;4.60;;;4.20;99.90;;;;;;4875832;29;20127;-85
2022/01/28 00:44:29;;;;;;;31.23;4.28;;;4.30;99.90;;;;;;4860964;29;20049;-86
2022/01/28 00:46:54;;;;;;;37.05;4.90;;;4.30;99.90;;;;;;4859594;29;20055;-86
2022/01/28 00:49:21;;;;;;;39.63;6.05;;;4.40;99.90;;;;;;4876466;29;20052;-86
2022/01/28 00:51:46;;;;;;;35.95;5.22;;;4.50;99.90;;;;;;4876752;29;20052;-85
2022/01/28 00:54:12;;;;;;;34.90;4.65;;;5.50;99.90;;;;;;4874303;29;20111;-85
2022/01/28 00:56:38;;;;;;;38.25;4.60;;;4.80;99.90;;;;;;4876621;29;20049;-86
2022/01/28 00:59:03;;;;;;;44.28;5.13;;;4.90;99.90;;;;;;4860086;29;20063;-88
2022/01/28 01:01:30;;;;;;;44.28;5.78;;;4.70;99.90;;;;;;4860551;29;20045;-88
2022/01/28 01:03:56;;;;;;;32.20;4.38;;;4.70;99.90;;;;;;4876029;29;20048;-88
2022/01/28 01:06:22;;;;;;;20.50;3.17;;;4.60;99.90;;;;;;4876053;29;20050;-88
2022/01/28 01:08:48;;;;;;;27.90;3.92;;;4.50;99.90;;;;;;4875871;29;20048;-89
2022/01/28 01:11:14;;;;;;;24.23;4.00;;;4.50;99.90;;;;;;4874959;29;20068;-89
2022/01/28 01:13:41;;;;;;;24.55;3.88;;;4.40;99.90;;;;;;4876133;29;20059;-89
2022/01/28 01:16:10;;;;;;;28.23;3.75;;;4.40;99.90;;;;;;4874949;29;20113;-87
2022/01/28 01:18:46;;;;;;;24.15;3.75;;;4.50;99.90;;;;;;4876645;29;20052;-88
2022/01/28 01:21:19;;;;;;;22.27;3.50;;;4.40;99.90;;;;;;4875110;29;20064;-87
2022/01/28 01:23:53;;;;;;;25.20;4.07;;;4.50;99.90;;;;;;4860409;29;20040;-88
2022/01/28 01:26:27;;;;;;;22.85;4.63;;;4.50;99.90;;;;;;4859785;29;20055;-87
2022/01/28 01:28:53;;;;;;;27.42;5.13;;;4.50;99.90;;;;;;4875558;29;20060;-87
2022/01/28 01:31:19;;;;;;;34.85;5.95;;;4.50;99.90;;;;;;4861090;29;20489;-87
2022/01/28 01:33:54;;;;;;;28.90;4.78;;;5.10;99.90;;;;;;4860466;29;20115;-87
2022/01/28 01:36:20;;;;;;;35.13;4.50;;;5.10;99.90;;;;;;4859932;29;20068;-87
2022/01/28 01:38:46;;;;;;;33.53;5.18;;;4.60;99.90;;;;;;4860427;29;20052;-87
2022/01/28 01:41:18;;;;;;;27.67;4.10;;;4.70;99.90;;;;;;4874836;29;20048;-88
2022/01/28 01:43:59;;;;;;;33.42;5.55;;;4.80;99.90;;;;;;4859645;29;20060;-87
2022/01/28 01:46:38;;;;;;;30.30;4.82;;;4.70;99.90;;;;;;4875428;29;20045;-87
2022/01/28 01:52:02;;;;;;;28.75;5.15;;;5.00;99.90;;;;;;4874464;29;20047;-86
2022/01/28 01:54:30;;;;;;;31.23;3.80;;;4.80;99.90;;;;;;4859676;29;20214;-87
2022/01/28 01:56:56;;;;;;;29.98;4.78;;;5.00;99.90;;;;;;4875534;29;20146;-87
2022/01/28 01:59:22;;;;;;;27.08;5.05;;;4.80;99.90;;;;;;4859327;29;20477;-87
2022/01/28 02:01:48;;;;;;;26.88;4.55;;;4.90;99.90;;;;;;4860525;29;20051;-87
2022/01/28 02:04:14;;;;;;;37.22;4.80;;;4.90;99.90;;;;;;4859537;29;20045;-87
2022/01/28 02:06:40;;;;;;;23.08;4.10;;;5.50;99.90;;;;;;4875248;29;20523;-87
2022/01/28 02:09:07;;;;;;;33.83;4.55;;;5.40;99.90;;;;;;4859692;29;20045;-87
2022/01/28 02:11:33;;;;;;;36.85;5.55;;;5.40;99.90;;;;;;4858558;29;20087;-90
2022/01/28 02:13:59;;;;;;;36.80;5.68;;;5.00;99.90;;;;;;4860035;29;20083;-88
2022/01/28 02:16:25;;;;;;;27.13;4.57;;;5.00;99.90;;;;;;4860226;29;20040;-87
2022/01/28 02:18:50;;;;;;;36.15;5.10;;;5.10;99.90;;;;;;4858776;29;20049;-87
2022/01/28 02:21:18;;;;;;;24.95;4.63;;;5.20;99.90;;;;;;4859924;29;20178;-87
2022/01/28 02:23:47;;;;;;;24.35;4.85;;;5.20;99.90;;;;;;4860991;29;20048;-88
2022/01/28 02:26:15;;;;;;;25.52;4.32;;;5.30;99.90;;;;;;4861834;29;20045;-87
2022/01/28 02:28:44;;;;;;;31.83;3.70;;;5.40;99.90;;;;;;4879077;29;20095;-87
2022/01/28 02:31:10;;;;;;;29.70;5.38;;;5.40;99.90;;;;;;4878758;29;20049;-87
2022/01/28 02:33:36;;;;;;;37.25;4.93;;;5.40;99.90;;;;;;4862367;29;20461;-87
2022/01/28 02:36:05;;;;;;;31.48;5.00;;;5.40;99.90;;;;;;4878654;29;20088;-87
2022/01/28 02:38:31;;;;;;;31.63;4.47;;;5.40;99.90;;;;;;4878884;29;20464;-86
2022/01/28 02:41:00;;;;;;;33.33;5.25;;;5.40;99.90;;;;;;4861565;29;20052;-87
2022/01/28 02:43:33;;;;;;;45.80;6.15;;;5.40;99.90;;;;;;4879057;29;20060;-87
2022/01/28 02:46:09;;;;;;;40.40;5.88;;;5.40;99.90;;;;;;4878149;29;20140;-88
2022/01/28 02:48:38;;;;;;;33.90;5.97;;;5.30;99.90;;;;;;4862526;29;20085;-87
2022/01/28 02:51:12;;;;;;;38.88;7.20;;;5.30;99.90;;;;;;4877929;29;20401;-88
2022/01/28 02:53:41;;;;;;;33.42;5.00;;;5.30;99.90;;;;;;4878383;29;20064;-87
2022/01/28 02:56:20;;;;;;;36.45;4.82;;;5.30;99.90;;;;;;4861834;29;20210;-88
2022/01/28 02:58:47;;;;;;;39.67;5.97;;;5.30;99.90;;;;;;4879139;29;20416;-88
2022/01/28 03:01:15;;;;;;;39.58;5.88;;;5.30;99.90;;;;;;4877136;29;20084;-88
2022/01/28 03:03:42;;;;;;;35.50;5.28;;;5.30;99.90;;;;;;4878977;29;20052;-88
2022/01/28 03:06:09;;;;;;;43.63;6.50;;;5.40;99.90;;;;;;4862540;29;20486;-88
2022/01/28 03:08:34;;;;;;;33.10;5.60;;;5.40;99.90;;;;;;4862237;29;20052;-88
2022/01/28 03:16:09;;;;;;;34.97;6.10;;;5.30;99.90;;;;;;4877326;29;20063;-88
2022/01/28 03:18:52;;;;;;;40.00;6.13;;;5.30;99.90;;;;;;4878546;29;20053;-88
2022/01/28 03:21:23;;;;;;;;;;;5.30;99.90;;;;;;4862943;29;20081;-88
2022/01/28 03:23:49;;;;;;;28.17;5.07;;;5.70;99.90;;;;;;4878198;29;19924;-88
2022/01/28 03:26:16;;;;;;;31.30;4.57;;;5.30;99.90;;;;;;4876566;29;20555;-88
2022/01/28 03:28:41;;;;;;;33.42;5.78;;;5.30;99.90;;;;;;4861983;29;20873;-87
2022/01/28 03:31:07;;;;;;;29.70;5.13;;;5.40;99.90;;;;;;4862045;29;20060;-87
2022/01/28 03:33:33;;;;;;;26.55;5.18;;;5.40;99.90;;;;;;4877696;29;20147;-88
2022/01/28 03:36:02;;;;;;;31.58;4.40;;;5.40;99.90;;;;;;4876024;29;20045;-88
2022/01/28 03:38:27;;;;;;;25.02;4.63;;;5.50;99.90;;;;;;4878127;29;20132;-87
2022/01/28 03:40:56;;;;;;;30.20;4.15;;;5.40;99.90;;;;;;4861067;29;20135;-87
2022/01/28 03:43:21;;;;;;;23.08;4.50;;;5.50;99.90;;;;;;4876986;29;20124;-88
2022/01/28 03:45:47;;;;;;;31.48;4.80;;;5.40;99.90;;;;;;4862310;29;20125;-87
2022/01/28 03:48:13;;;;;;;27.60;4.40;;;5.50;99.90;;;;;;4861561;29;20135;-87
2022/01/28 03:50:38;;;;;;;23.58;4.88;;;5.60;99.90;;;;;;4860982;29;20476;-87
2022/01/28 03:53:06;;;;;;;31.55;4.40;;;6.30;99.90;;;;;;4861927;29;20048;-88
2022/01/28 03:55:32;;;;;;;26.42;4.25;;;5.50;99.90;;;;;;4861164;29;20058;-87
2022/01/28 03:57:58;;;;;;;26.75;4.25;;;5.50;99.90;;;;;;4861071;29;20111;-87
2022/01/28 04:00:26;;;;;;;25.38;4.28;;;5.50;99.90;;;;;;4862065;29;20044;-88
2022/01/28 04:03:07;;;;;;;29.23;4.90;;;5.80;99.90;;;;;;4861838;29;20134;-88
2022/01/28 04:13:34;;;;;;;26.75;4.22;;;5.50;99.90;;;;;;4876835;29;20062;-86
2022/01/28 04:18:26;;;;;;;24.08;4.53;;;5.50;99.90;;;;;;4876981;29;20051;-86
2022/01/28 04:20:51;;;;;;;27.13;4.30;;;5.50;99.90;;;;;;4860782;29;20087;-86
2022/01/28 04:23:18;;;;;;;24.77;3.42;;;5.50;99.40;;;;;;4877707;29;20066;-86
2022/01/28 04:25:44;;;;;;;29.38;4.82;;;5.60;99.10;;;;;;4859629;29;20052;-86
2022/01/28 04:28:10;;;;;;;22.70;4.13;;;5.50;97.70;;;;;;4861244;29;20457;-86
2022/01/28 04:30:36;;;;;;;26.67;4.32;;;5.60;97.40;;;;;;4861093;29;20040;-86
2022/01/28 04:33:02;;;;;;;31.00;4.65;;;6.00;97.50;;;;;;4876089;29;20091;-86
2022/01/28 04:35:27;;;;;;;26.38;3.95;;;5.70;96.60;;;;;;4877010;29;20568;-86
2022/01/28 04:38:12;;;;;;;27.77;4.32;;;5.90;97.00;;;;;;4860769;29;20047;-85
2022/01/28 04:40:49;;;;;;;24.80;4.63;;;5.60;96.90;;;;;;4875471;29;20052;-86
2022/01/28 04:43:23;;;;;;;27.35;4.90;;;5.60;96.90;;;;;;4860998;29;20053;-86
2022/01/28 04:46:05;;;;;;;28.00;4.55;;;5.60;96.00;;;;;;4876048;29;20044;-86
2022/01/28 04:48:48;;;;;;;30.50;5.40;;;5.70;96.60;;;;;;4877072;29;20063;-86
2022/01/28 04:51:43;;;;;;;29.35;5.65;;;5.70;97.20;;;;;;4877018;29;20466;-86
2022/01/28 04:54:34;;;;;;;28.83;4.28;;;5.70;97.30;;;;;;4875515;29;20087;-86
2022/01/28 04:57:06;;;;;;;35.33;4.32;;;5.70;98.10;;;;;;4895120;29;20131;-86
2022/01/28 05:00:00;;;;;;;31.67;5.15;;;5.60;98.70;;;;;;4895303;29;20054;-85
2022/01/28 05:08:10;;;;;;;24.15;3.90;;;5.50;99.90;;;;;;4894631;29;20547;-86
2022/01/28 05:13:32;;;;;;;32.97;5.15;;;5.30;99.90;;;;;;4894325;29;20055;-85
2022/01/28 05:16:21;;;;;;;24.00;3.70;;;5.20;99.90;;;;;;4893939;29;20055;-86
2022/01/28 05:24:36;;;;;;;39.40;5.25;;;5.00;99.90;;;;;;4894776;29;20345;-85
2022/01/28 05:27:00;;;;;;;37.35;4.93;;;5.00;99.90;;;;;;4887494;29;20059;-86
2022/01/28 05:29:26;;;;;;;28.38;5.07;;;5.00;99.90;;;;;;4875902;29;20107;-85
2022/01/28 05:31:52;;;;;;;31.45;5.80;;;5.00;99.90;;;;;;4875238;29;20048;-86
2022/01/28 05:34:18;;;;;;;38.33;4.53;;;5.40;99.90;;;;;;4860421;29;20056;-86
2022/01/28 05:36:45;;;;;;;30.80;5.18;;;5.00;99.90;;;;;;4875796;29;20048;-87
2022/01/28 05:39:11;;;;;;;36.33;5.05;;;5.00;99.90;;;;;;4859293;29;20386;-86
2022/01/28 05:41:36;;;;;;;37.55;5.00;;;5.00;99.90;;;;;;4875835;29;20507;-86
2022/01/28 05:44:02;;;;;;;39.80;5.60;;;6.00;99.90;;;;;;4874336;29;20099;-87
2022/01/28 05:46:29;;;;;;;37.63;6.35;;;5.10;99.90;;;;;;4875995;29;20489;-86
2022/01/28 05:48:56;;;;;;;40.35;5.22;;;5.10;99.90;;;;;;4859903;29;20166;-86
2022/01/28 05:51:22;;;;;;;30.75;6.78;;;5.10;99.90;;;;;;4875064;29;20073;-86
2022/01/28 05:53:47;;;;;;;27.25;4.63;;;5.10;99.90;;;;;;4876015;29;20052;-86
2022/01/28 05:56:13;;;;;;;29.63;5.13;;;5.20;99.90;;;;;;4873619;29;20040;-86
2022/01/28 05:58:39;;;;;;;27.70;3.92;;;5.20;99.90;;;;;;4877168;29;20054;-86
2022/01/28 06:01:05;;;;;;;33.58;4.97;;;5.20;99.90;;;;;;4878868;29;20052;-86
2022/01/28 06:03:30;;;;;;;36.03;4.43;;;5.20;99.90;;;;;;4863608;29;20469;-86
2022/01/28 06:05:56;;;;;;;36.30;5.78;;;5.20;99.90;;;;;;4863536;29;20088;-86
2022/01/28 06:08:22;;;;;;;27.10;4.25;;;5.20;99.90;;;;;;4864022;29;20107;-86
2022/01/28 06:10:47;;;;;;;25.92;4.57;;;5.20;99.90;;;;;;4877927;29;20098;-86
2022/01/28 06:13:13;;;;;;;37.17;4.50;;;5.20;99.90;;;;;;4863251;29;20056;-86
2022/01/28 06:15:41;;;;;;;36.00;5.45;;;5.30;99.90;;;;;;4879027;29;20120;-86
2022/01/28 06:18:08;;;;;;;22.83;4.35;;;5.20;99.90;;;;;;4862963;29;20056;-87
2022/01/28 06:20:33;;;;;;;38.55;6.15;;;5.30;99.90;;;;;;4878826;29;20060;-86
2022/01/28 06:22:59;;;;;;;30.77;4.70;;;5.20;99.90;;;;;;4879153;29;20048;-86
2022/01/28 06:25:25;;;;;;;29.08;5.30;;;6.20;99.90;;;;;;4862165;29;20123;-87
2022/01/28 06:27:50;;;;;;;39.30;5.43;;;5.20;99.90;;;;;;4863229;29;20386;-86
2022/01/28 06:30:17;;;;;;;42.42;6.50;;;5.10;99.90;;;;;;4879118;29;20049;-85
2022/01/28 06:32:43;;;;;;;46.65;6.15;;;5.10;99.90;;;;;;4878048;29;20202;-86
2022/01/28 06:35:09;;;;;;;50.90;6.75;;;5.90;99.90;;;;;;4878285;29;20071;-86
2022/01/28 06:37:38;;;;;;;38.35;4.95;;;5.10;99.90;;;;;;4863235;29;20044;-86
2022/01/28 06:40:06;;;;;;;41.40;6.05;;;5.10;99.90;;;;;;4861491;29;20401;-86
2022/01/28 06:42:32;;;;;;;28.35;5.95;;;5.00;99.90;;;;;;4878683;29;20436;-85
2022/01/28 06:44:57;;;;;;;42.42;6.18;;;5.00;99.90;;;;;;4878218;29;20048;-86
2022/01/28 06:47:23;;;;;;;24.20;4.00;;;5.00;99.90;;;;;;4878314;29;20055;-86
2022/01/28 06:49:49;;;;;;;36.97;5.15;;;5.00;99.90;;;;;;4877963;29;20048;-85
2022/01/28 06:52:15;;;;;;;39.53;5.03;;;4.40;99.90;;;;;;4879050;29;20139;-85
2022/01/28 06:54:40;;;;;;;32.22;5.63;;;4.90;99.90;;;;;;4861481;29;20040;-86
2022/01/28 06:57:06;;;;;;;33.03;5.75;;;4.80;99.90;;;;;;4878143;29;20047;-86
2022/01/28 06:59:32;;;;;;;33.05;4.72;;;4.80;99.90;;;;;;4862642;29;20115;-86
2022/01/28 07:01:57;;;;;;;31.27;4.38;;;4.80;99.90;;;;;;4877875;29;20052;-86
2022/01/28 07:04:23;;;;;;;31.92;4.30;;;4.70;99.90;;;;;;4878326;29;20547;-86
2022/01/28 07:06:49;;;;;;;33.30;4.53;;;4.70;99.90;;;;;;4877765;29;20040;-86
2022/01/28 07:09:16;;;;;;;39.33;4.85;;;4.70;99.90;;;;;;4877080;29;20057;-86
2022/01/28 07:11:43;;;;;;;38.45;5.32;;;4.70;99.90;;;;;;4877566;29;20079;-85
2022/01/28 07:14:09;;;;;;;38.42;4.47;;;5.40;99.90;;;;;;4861123;29;20071;-85
2022/01/28 07:16:35;;;;;;;28.05;3.97;;;4.70;99.90;;;;;;4862892;29;20049;-86
2022/01/28 07:19:02;;;;;;;23.63;3.42;;;4.80;99.90;;;;;;4876928;29;20536;-86
2022/01/28 07:21:28;;;;;;;33.42;4.43;;;4.80;99.90;;;;;;4877277;29;20489;-86
2022/01/28 07:23:54;;;;;;;30.00;4.43;;;4.70;99.90;;;;;;4862044;29;20044;-87
2022/01/28 07:26:20;;;;;;;25.15;4.60;;;4.80;99.90;;;;;;4876869;29;20050;-87
2022/01/28 07:28:46;;;;;;;24.55;4.40;;;4.90;99.90;;;;;;4877512;29;20143;-86
2022/01/28 07:31:14;;;;;;;30.67;4.53;;;4.80;99.90;;;;;;4866714;29;20040;-86
2022/01/28 07:33:41;;;;;;;34.67;4.50;;;4.70;99.90;;;;;;4869496;29;20131;-86
2022/01/28 07:36:07;;;;;;;40.45;4.95;;;4.70;99.90;;;;;;4870773;29;20548;-86
2022/01/28 07:38:33;;;;;;;34.78;4.38;;;5.60;99.90;;;;;;4909060;23;20146;-86
2022/01/28 07:40:59;;;;;;;34.70;4.70;;;4.70;99.90;;;;;;4879008;29;20056;-86
2022/01/28 07:43:26;;;;;;;35.38;4.55;;;4.70;99.90;;;;;;4879425;29;20058;-87
2022/01/28 07:45:51;;;;;;;33.42;4.75;;;5.10;99.90;;;;;;4879746;29;20080;-87
2022/01/28 07:48:17;;;;;;;38.13;4.63;;;4.70;99.90;;;;;;4895748;29;20104;-87
2022/01/28 07:50:43;;;;;;;45.25;5.72;;;4.80;99.90;;;;;;4879475;29;20052;-85
2022/01/28 07:53:11;;;;;;;23.17;4.63;;;4.70;99.90;;;;;;4893341;29;20060;-86
2022/01/28 07:55:36;;;;;;;40.20;5.70;;;4.80;99.90;;;;;;4873464;29;20048;-86
2022/01/28 07:58:02;;;;;;;39.20;5.45;;;4.80;99.90;;;;;;4889030;29;20048;-85
2022/01/28 08:00:28;;;;;;;30.00;5.68;;;5.00;99.90;;;;;;4888781;29;20059;-84
2022/01/28 08:02:54;;;;;;;37.58;4.18;;;4.70;99.90;;;;;;4877842;29;20054;-85
2022/01/28 08:05:20;;;;;;;38.75;5.75;;;4.70;99.90;;;;;;4880546;29;20353;-85
2022/01/28 08:07:47;;;;;;;37.00;5.88;;;4.90;99.90;;;;;;4904365;29;20308;-85
2022/01/28 08:10:16;;;;;;;37.40;6.63;;;4.70;99.90;;;;;;4901973;29;20410;-85
2022/01/28 08:12:48;;;;;;;46.70;5.82;;;4.70;99.90;;;;;;4879833;29;20048;-85
2022/01/28 08:15:15;;;;;;;36.45;5.40;;;4.60;99.90;;;;;;4894660;29;20366;-87
2022/01/28 08:17:40;;;;;;;32.28;5.43;;;4.60;99.90;;;;;;4880845;29;20484;-87
2022/01/28 08:20:07;;;;;;;57.03;6.50;;;4.70;99.90;;;;;;4879071;29;20080;-87
2022/01/28 08:22:33;;;;;;;33.97;5.55;;;4.70;99.90;;;;;;4894317;28;20047;-88
2022/01/28 08:24:59;;;;;;;40.30;5.72;;;4.70;99.90;;;;;;4878346;29;20103;-87
2022/01/28 08:27:24;;;;;;;33.80;5.85;;;4.70;99.90;;;;;;4889366;29;20044;-89
2022/01/28 08:29:50;;;;;;;41.35;5.55;;;4.70;99.90;;;;;;4890150;29;20530;-88
2022/01/28 08:32:16;;;;;;;34.08;4.88;;;4.80;99.90;;;;;;4879004;29;20055;-88
2022/01/28 08:34:41;;;;;;;34.50;5.90;;;4.80;99.90;;;;;;4883410;29;20052;-86
2022/01/28 08:37:07;;;;;;;38.72;4.72;;;4.80;99.90;;;;;;4895680;29;20095;-85
2022/01/28 08:39:35;;;;;;;36.28;5.50;;;4.80;99.90;;;;;;4893757;29;20551;-85
2022/01/28 08:42:00;;;;;;;36.33;5.25;;;4.80;99.90;;;;;;4894838;29;20056;-84
2022/01/28 08:44:27;;;;;;;41.13;5.63;;;4.90;99.90;;;;;;4894836;29;20457;-84
2022/01/28 08:46:53;;;;;;;34.97;5.00;;;4.80;99.90;;;;;;4877606;29;20040;-83
2022/01/28 08:49:19;;;;;;;38.50;5.47;;;4.70;99.90;;;;;;4879318;29;20099;-83
2022/01/28 08:51:45;;;;;;;32.55;4.78;;;4.70;99.90;;;;;;4894677;29;20504;-83
2022/01/28 08:54:11;;;;;;;30.05;4.68;;;4.70;99.90;;;;;;4892864;29;20576;-82
2022/01/28 08:56:36;;;;;;;30.10;4.25;;;4.70;99.90;;;;;;4894957;29;20040;-83
2022/01/28 08:59:02;;;;;;;36.00;5.75;;;4.70;99.90;;;;;;4877279;29;20048;-82
2022/01/28 09:01:29;;;;;;;32.72;4.85;;;4.80;99.90;;;;;;4879408;29;20188;-82
2022/01/28 09:03:55;;;;;;;44.63;5.60;;;4.80;99.90;;;;;;4893961;29;20052;-82
2022/01/28 09:06:21;;;;;;;38.00;5.65;;;4.80;99.90;;;;;;4894272;29;20416;-82
2022/01/28 09:08:48;;;;;;;39.45;5.22;;;5.50;99.90;;;;;;4912076;29;20180;-82
2022/01/28 09:13:47;;;;;;;33.85;5.55;;;4.80;99.90;;;;;;4893873;29;20063;-82
2022/01/28 09:16:13;;;;;;;34.80;4.97;;;4.90;99.90;;;;;;4893919;29;20183;-82
2022/01/28 09:18:39;;;;;;;31.92;4.45;;;4.90;99.90;;;;;;4880017;29;20059;-82
2022/01/28 09:21:05;;;;;;;34.35;5.40;;;5.00;99.90;;;;;;4893458;29;20059;-82
2022/01/28 09:23:31;;;;;;;32.30;4.60;;;5.10;99.90;;;;;;4894877;29;20497;-82
2022/01/28 09:25:57;;;;;;;47.10;5.80;;;5.10;99.90;;;;;;4893085;29;20055;-82
2022/01/28 09:28:22;;;;;;;32.92;4.28;;;5.20;99.90;;;;;;4876028;29;20112;-82
2022/01/28 09:30:48;;;;;;;36.53;5.35;;;5.60;99.90;;;;;;4875541;29;20053;-82
2022/01/28 09:33:14;;;;;;;27.42;4.53;;;5.50;99.90;;;;;;4891860;29;20052;-82
2022/01/28 09:35:41;;;;;;;35.88;5.68;;;6.00;99.90;;;;;;4874987;29;20127;-81
2022/01/28 09:38:08;;;;;;;31.48;5.05;;;5.80;99.90;;;;;;4891821;29;20083;-81
2022/01/28 09:40:33;;;;;;;38.00;4.78;;;6.30;99.90;;;;;;4891733;29;20056;-81
2022/01/28 09:43:01;;;;;;;35.10;4.82;;;5.70;99.90;;;;;;4874491;29;20382;-81
2022/01/28 09:45:27;;;;;;;37.13;4.65;;;5.80;99.90;;;;;;4875068;29;20453;-81
2022/01/28 09:47:56;;;;;;;34.38;5.03;;;5.80;99.90;;;;;;4874879;29;20052;-82
2022/01/28 09:50:24;;;;;;;34.15;5.38;;;6.10;99.90;;;;;;4874345;29;20105;-81
2022/01/28 09:52:51;;;;;;;28.65;5.00;;;5.90;99.90;;;;;;4875430;29;20056;-82
2022/01/28 09:55:18;;;;;;;33.95;5.10;;;6.00;99.90;;;;;;4874102;29;20461;-82
2022/01/28 09:57:47;;;;;;;38.80;5.22;;;6.00;99.90;;;;;;4875751;29;20084;-82
2022/01/28 10:00:13;;;;;;;30.25;4.47;;;6.10;99.90;;;;;;4874742;29;20052;-82
2022/01/28 10:02:48;;;;;;;35.60;5.10;;;6.00;99.90;;;;;;4875033;29;20132;-82
2022/01/28 10:05:22;;;;;;;38.95;5.43;;;6.10;99.90;;;;;;4874969;29;20104;-81
2022/01/28 10:08:11;;;;;;;40.70;5.13;;;6.20;99.90;;;;;;4875730;29;20045;-82
2022/01/28 10:10:55;;;;;;;27.00;4.60;;;6.20;99.90;;;;;;4873895;29;20103;-82
2022/01/28 10:13:29;;;;;;;34.38;5.72;;;6.30;99.90;;;;;;4875199;29;20123;-81
2022/01/28 10:16:01;;;;;;;29.75;5.18;;;6.40;99.90;;;;;;4915589;29;20055;-81
2022/01/28 10:18:46;;;;;;;36.88;6.18;;;6.40;99.90;;;;;;4909273;29;20565;-81
2022/01/28 10:21:22;;;;;;;42.30;5.30;;;6.40;99.90;;;;;;4892264;29;20040;-81
2022/01/28 10:24:04;;;;;;;31.02;4.45;;;6.40;99.90;;;;;;4859404;29;20596;-82
2022/01/28 10:26:31;;;;;;;37.40;4.95;;;6.40;99.90;;;;;;4874823;29;20116;-81
2022/01/28 10:28:58;;;;;;;33.35;4.90;;;6.40;99.90;;;;;;4874742;29;20048;-81
2022/01/28 10:31:38;;;;;;;33.95;4.88;;;6.40;99.90;;;;;;4874473;29;20066;-81
2022/01/28 10:34:12;;;;;;;32.42;4.68;;;6.40;99.90;;;;;;4859495;29;20465;-81
2022/01/28 10:36:38;;;;;;;30.00;4.72;;;6.50;99.90;;;;;;4889408;29;20052;-81
2022/01/28 10:39:03;;;;;;;31.15;5.18;;;6.60;99.90;;;;;;4901886;29;20066;-81
2022/01/28 10:41:29;;;;;;;30.98;4.47;;;6.60;99.90;;;;;;4901270;29;20139;-81
2022/01/28 10:43:57;;;;;;;30.75;6.13;;;7.20;99.90;;;;;;4903150;29;20051;-81
2022/01/28 10:46:26;;;;;;;35.22;5.13;;;6.80;99.90;;;;;;4905957;29;20437;-81
2022/01/28 10:48:56;;;;;;;39.25;5.75;;;6.80;99.90;;;;;;4906818;29;20054;-81
2022/01/28 10:51:38;;;;;;;38.88;4.45;;;6.90;99.90;;;;;;4890625;29;20516;-81
2022/01/28 10:54:09;;;;;;;38.15;5.53;;;6.90;99.90;;;;;;4922248;29;20517;-81
2022/01/28 10:56:47;;;;;;;34.30;5.45;;;6.80;99.90;;;;;;4903782;29;20040;-82
2022/01/28 10:59:17;;;;;;;28.52;4.57;;;6.90;99.90;;;;;;4903466;29;20044;-81
2022/01/28 11:01:47;;;;;;;28.40;4.90;;;6.90;99.90;;;;;;4906514;29;20044;-81
2022/01/28 11:04:14;;;;;;;32.38;4.07;;;7.00;99.90;;;;;;4899414;29;20447;-82
2022/01/28 11:06:42;;;;;;;35.80;4.93;;;6.90;99.90;;;;;;4901160;29;20099;-81
2022/01/28 11:09:09;;;;;;;29.15;4.07;;;6.90;99.90;;;;;;4895944;29;20522;-81
2022/01/28 11:11:36;;;;;;;26.95;4.15;;;6.90;99.90;;;;;;4896902;29;20047;-81
2022/01/28 11:14:02;;;;;;;37.75;5.22;;;6.90;99.90;;;;;;4895263;29;20087;-83
2022/01/28 11:16:29;;;;;;;25.33;3.90;;;6.90;99.90;;;;;;4895190;29;20111;-82
2022/01/28 11:18:56;;;;;;;33.55;4.60;;;6.90;99.90;;;;;;4902489;29;20159;-83
2022/01/28 11:21:46;;;;;;;32.97;4.32;;;6.70;99.90;;;;;;4895056;29;20051;-81
2022/01/28 11:24:35;;;;;;;28.20;5.15;;;6.90;99.90;;;;;;4895474;29;20445;-81
2022/01/28 11:27:10;;;;;;;25.90;4.22;;;6.90;99.90;;;;;;4880157;29;20051;-82
2022/01/28 11:29:37;;;;;;;26.98;4.10;;;6.90;99.90;;;;;;4896633;29;20059;-81
2022/01/28 11:32:14;;;;;;;26.77;4.78;;;6.80;99.90;;;;;;4911313;29;20404;-81
2022/01/28 11:34:57;;;;;;;36.05;5.47;;;6.80;99.90;;;;;;4912885;29;20044;-81
2022/01/28 11:37:27;;;;;;;28.33;3.80;;;6.70;99.90;;;;;;4896449;29;20064;-81
2022/01/28 11:39:53;;;;;;;20.05;3.75;;;6.60;99.90;;;;;;4895415;29;20055;-81
2022/01/28 11:42:23;;;;;;;29.65;4.22;;;6.80;99.90;;;;;;4895700;29;20472;-81
2022/01/28 11:44:49;;;;;;;41.60;5.03;;;6.40;99.90;;;;;;4902305;29;20051;-81
2022/01/28 11:47:28;;;;;;;37.75;5.20;;;6.30;99.90;;;;;;4877366;29;20414;-81
2022/01/28 11:49:56;;;;;;;24.98;4.15;;;6.70;99.90;;;;;;4876227;29;20068;-81
2022/01/28 11:52:29;;;;;;;34.30;5.03;;;6.30;99.90;;;;;;4877286;29;20067;-81
2022/01/28 11:54:56;;;;;;;28.77;4.70;;;6.30;99.90;;;;;;4875638;29;20143;-81
2022/01/28 11:57:26;;;;;;;25.65;4.07;;;6.40;99.90;;;;;;4876889;29;20045;-82
2022/01/28 12:00:11;;;;;;;30.83;4.28;;;6.60;99.90;;;;;;4876715;29;20060;-81
2022/01/28 12:02:48;;;;;;;27.30;4.25;;;6.70;99.90;;;;;;4876554;29;20051;-81
2022/01/28 12:05:30;;;;;;;31.70;5.15;;;6.80;99.90;;;;;;4876878;29;20147;-81
2022/01/28 12:07:57;;;;;;;29.85;5.47;;;6.80;99.90;;;;;;4876884;29;20052;-81
2022/01/28 12:10:23;;;;;;;36.92;5.57;;;6.90;99.90;;;;;;4875414;29;20493;-81
2022/01/28 12:12:58;;;;;;;34.15;4.85;;;6.90;99.90;;;;;;4877296;29;20087;-80
2022/01/28 12:15:27;;;;;;;23.33;4.10;;;7.00;99.90;;;;;;4876830;29;20053;-81
2022/01/28 12:18:09;;;;;;;27.23;4.38;;;7.00;99.90;;;;;;4875892;29;20064;-81
2022/01/28 12:20:38;;;;;;;33.75;4.15;;;7.00;99.90;;;;;;4876776;29;20055;-81
2022/01/28 12:23:08;;;;;;;32.65;4.47;;;7.00;99.90;;;;;;4875876;29;20096;-81
2022/01/28 12:25:35;;;;;;;31.38;4.78;;;7.10;99.90;;;;;;4876343;29;20063;-81
2022/01/28 12:28:22;;;;;;;28.67;4.40;;;7.10;99.90;;;;;;4876115;29;20040;-81
2022/01/28 12:30:50;;;;;;;23.80;3.80;;;7.10;99.90;;;;;;4875898;29;20525;-81
2022/01/28 12:33:21;;;;;;;26.75;3.90;;;7.20;99.90;;;;;;4876715;29;20441;-81
2022/01/28 12:35:50;;;;;;;29.63;4.22;;;7.20;99.90;;;;;;4893604;29;20056;-81
2022/01/28 12:38:20;;;;;;;38.08;5.05;;;7.60;99.90;;;;;;4875523;29;20057;-81
2022/01/28 12:40:50;;;;;;;26.98;4.50;;;7.30;99.90;;;;;;4875907;29;20115;-80
2022/01/28 12:43:18;;;;;;;21.67;3.72;;;7.40;99.90;;;;;;4876070;29;20087;-81
2022/01/28 12:46:01;;;;;;;33.97;3.63;;;7.40;99.90;;;;;;4875780;29;20063;-81
2022/01/28 12:48:27;;;;;;;;;;;7.40;99.90;;;;;;4877001;29;20421;-81
2022/01/28 12:50:54;;;;;;;29.80;3.95;;;7.30;98.30;;;;;;4875309;29;19935;-83
2022/01/28 12:53:35;;;;;;;30.30;3.80;;;7.30;99.60;;;;;;4875606;29;20052;-80
2022/01/28 12:56:02;;;;;;;40.95;4.13;;;7.30;98.70;;;;;;4874923;29;20080;-80
2022/01/28 12:58:37;;;;;;;26.98;3.50;;;7.30;99.40;;;;;;4875620;29;20393;-80
2022/01/28 13:01:06;;;;;;;23.83;4.15;;;7.40;98.50;;;;;;4875561;29;20170;-80
2022/01/28 13:03:37;;;;;;;21.95;3.33;;;7.40;99.60;;;;;;4875804;29;20544;-80
2022/01/28 13:06:23;;;;;;;28.45;3.70;;;7.40;99.30;;;;;;4874904;29;20131;-80
2022/01/28 13:08:50;;;;;;;24.90;5.05;;;7.30;98.50;;;;;;4875144;29;20127;-79
2022/01/28 13:11:15;;;;;;;41.33;4.65;;;7.20;98.70;;;;;;4875211;29;20048;-80
2022/01/28 13:13:54;;;;;;;18.13;2.58;;;7.10;99.10;;;;;;4875596;29;20120;-80
2022/01/28 13:16:30;;;;;;;36.22;4.30;;;7.20;99.10;;;;;;4875751;29;20040;-80
2022/01/28 13:18:57;;;;;;;23.05;3.60;;;7.00;98.50;;;;;;4875568;29;20052;-80
2022/01/28 13:21:23;;;;;;;24.98;4.65;;;7.00;99.00;;;;;;4875353;29;20048;-80
2022/01/28 13:24:02;;;;;;;24.23;3.95;;;7.00;99.10;;;;;;4896686;29;20066;-80
2022/01/28 13:26:28;;;;;;;22.95;4.20;;;6.90;99.70;;;;;;4901623;29;20111;-80
2022/01/28 13:29:05;;;;;;;22.40;3.58;;;6.90;99.80;;;;;;4904065;29;20471;-81
2022/01/28 13:31:31;;;;;;;20.25;3.50;;;6.90;99.60;;;;;;4893945;29;20059;-80
2022/01/28 13:33:58;;;;;;;24.88;3.97;;;6.80;99.90;;;;;;4901010;29;20044;-80
2022/01/28 13:36:24;;;;;;;27.80;3.70;;;7.20;99.90;;;;;;4903355;29;20105;-80
2022/01/28 13:38:51;;;;;;;24.65;3.42;;;6.80;99.90;;;;;;4888246;29;20547;-80
2022/01/28 13:41:19;;;;;;;30.20;4.03;;;6.70;99.90;;;;;;4900615;29;20083;-79
2022/01/28 13:43:45;;;;;;;27.25;4.57;;;6.70;99.90;;;;;;4903250;29;20134;-81
2022/01/28 13:46:13;;;;;;;34.30;4.82;;;6.70;99.90;;;;;;4909783;29;20134;-80
2022/01/28 13:48:40;;;;;;;22.17;3.85;;;6.60;99.90;;;;;;4905653;29;20051;-80
2022/01/28 13:51:09;;;;;;;29.17;3.58;;;6.60;99.90;;;;;;4901181;29;20078;-80
2022/01/28 13:56:33;;;;;;;23.75;3.80;;;6.70;99.90;;;;;;4902568;29;20136;-80
2022/01/28 13:59:00;;;;;;;27.80;3.60;;;6.80;99.90;;;;;;4902493;29;20048;-80